createdAt,value
2023-12-30T00:00:58.994Z,99376.75
2023-12-30T00:02:02.756Z,99374.88
2023-12-30T00:03:05.510Z,99374.88
2023-12-30T00:04:08.100Z,99368.89
2023-12-30T00:05:10.506Z,99368.02
2023-12-30T00:06:13.598Z,99369.72
2023-12-30T00:07:17.015Z,99369.83
2023-12-30T00:08:19.211Z,99379.20
2023-12-30T00:09:21.578Z,99370.58
2023-12-30T00:10:25.832Z,99362.79
2023-12-30T00:11:29.006Z,99365.50
2023-12-30T00:12:32.028Z,99368.89
2023-12-30T00:13:35.376Z,99387.83
2023-12-30T00:14:37.843Z,99381.97
2023-12-30T00:15:40.116Z,99381.08
2023-12-30T00:16:42.912Z,99372.43
2023-12-30T00:17:45.906Z,99376.63
2023-12-30T00:18:50.081Z,99381.78
2023-12-30T00:19:55.175Z,99372.28
2023-12-30T00:20:59.792Z,99371.41
2023-12-30T00:22:02.785Z,99373.94
2023-12-30T00:23:05.448Z,99366.25
2023-12-30T00:24:08.140Z,99371.47
2023-12-30T00:25:12.036Z,99374.13
2023-12-30T00:26:23.240Z,99366.31
2023-12-30T00:27:27.514Z,99361.15
2023-12-30T00:28:31.119Z,99374.93
2023-12-30T00:29:33.633Z,99379.26
2023-12-30T00:30:37.881Z,99371.55
2023-12-30T00:31:40.559Z,99367.27
2023-12-30T00:32:43.030Z,99381.03
2023-12-30T00:33:46.053Z,99370.77
2023-12-30T00:34:48.541Z,99360.45
2023-12-30T00:35:50.778Z,99369.07
2023-12-30T00:36:55.151Z,99367.27
2023-12-30T00:37:58.360Z,99369.15
2023-12-30T00:39:00.772Z,99368.20
2023-12-30T00:40:03.998Z,99370.77
2023-12-30T00:41:07.629Z,99369.02
2023-12-30T00:42:09.897Z,99376.81
2023-12-30T00:43:13.995Z,99364.67
2023-12-30T00:44:17.526Z,99369.07
2023-12-30T00:45:21.683Z,99369.95
2023-12-30T00:46:25.378Z,99365.69
2023-12-30T00:47:27.818Z,99367.38
2023-12-30T00:48:30.666Z,99368.20
2023-12-30T00:49:33.343Z,99372.43
2023-12-30T00:50:36.707Z,99363.80
2023-12-30T00:51:39.165Z,99368.20
2023-12-30T00:52:41.869Z,99370.84
2023-12-30T00:53:44.119Z,99356.88
2023-12-30T00:54:51.239Z,99356.88
2023-12-30T00:55:54.670Z,99362.98
2023-12-30T00:56:57.428Z,99361.96
2023-12-30T00:58:00.363Z,99364.75
2023-12-30T00:59:03.581Z,99362.22
2023-12-30T01:00:07.789Z,99367.45
2023-12-30T01:01:10.753Z,99361.34
2023-12-30T01:02:14.259Z,99373.47
2023-12-30T01:03:16.804Z,99364.80
2023-12-30T01:04:19.674Z,99365.61
2023-12-30T01:05:22.232Z,99372.35
2023-12-30T01:06:26.709Z,99362.98
2023-12-30T01:07:29.192Z,99369.95
2023-12-30T01:08:31.644Z,99380.33
2023-12-30T01:09:34.259Z,99366.52
2023-12-30T01:10:36.786Z,99370.92
2023-12-30T01:11:39.229Z,99362.41
2023-12-30T01:12:41.757Z,99370.14
2023-12-30T01:13:44.300Z,99379.57
2023-12-30T01:14:47.716Z,99369.25
2023-12-30T01:15:51.181Z,99365.87
2023-12-30T01:16:56.559Z,99369.33
2023-12-30T01:18:00.577Z,99370.14
2023-12-30T01:19:03.634Z,99380.45
2023-12-30T01:20:09.319Z,99370.16
2023-12-30T01:21:12.175Z,99375.31
2023-12-30T01:22:14.888Z,99378.70
2023-12-30T01:23:18.008Z,99376.18
2023-12-30T01:24:20.645Z,99383.98
2023-12-30T01:25:23.139Z,99374.59
2023-12-30T01:26:26.986Z,99385.73
2023-12-30T01:27:29.353Z,99377.95
2023-12-30T01:28:32.275Z,99376.23
2023-12-30T01:29:34.489Z,99384.05
2023-12-30T01:30:37.461Z,99390.95
2023-12-30T01:31:40.308Z,99390.21
2023-12-30T01:32:42.924Z,99389.96
2023-12-30T01:33:46.076Z,99391.73
2023-12-30T01:34:49.265Z,99390.95
2023-12-30T01:35:52.041Z,99376.25
2023-12-30T01:36:55.264Z,99392.66
2023-12-30T01:37:57.624Z,99390.95
2023-12-30T01:38:59.850Z,99401.03
2023-12-30T01:40:03.253Z,99397.63
2023-12-30T01:41:05.804Z,99383.03
2023-12-30T01:42:08.551Z,99385.73
2023-12-30T01:43:28.390Z,99385.69
2023-12-30T01:44:31.005Z,99396.05
2023-12-30T01:45:33.834Z,99378.05
2023-12-30T01:46:38.338Z,99382.34
2023-12-30T01:47:41.926Z,99379.88
2023-12-30T01:48:44.772Z,99383.28
2023-12-30T01:49:47.398Z,99383.28
2023-12-30T01:50:52.146Z,99382.45
2023-12-30T01:51:55.048Z,99388.50
2023-12-30T01:52:58.823Z,99379.02
2023-12-30T01:54:03.747Z,99386.75
2023-12-30T01:55:08.898Z,99381.59
2023-12-30T01:56:13.212Z,99386.75
2023-12-30T01:57:16.281Z,99389.33
2023-12-30T01:58:19.776Z,99385.16
2023-12-30T01:59:25.250Z,99375.73
2023-12-30T02:00:31.277Z,99381.70
2023-12-30T02:01:34.879Z,99378.23
2023-12-30T02:02:39.365Z,99374.84
2023-12-30T02:03:43.313Z,99374.03
2023-12-30T02:04:47.325Z,99377.47
2023-12-30T02:05:49.650Z,99373.15
2023-12-30T02:06:52.430Z,99377.42
2023-12-30T02:07:54.941Z,99377.37
2023-12-30T02:08:57.438Z,99373.08
2023-12-30T02:09:59.943Z,99376.54
2023-12-30T02:11:05.033Z,99373.27
2023-12-30T02:12:09.507Z,99373.27
2023-12-30T02:13:12.049Z,99383.53
2023-12-30T02:14:32.027Z,99387.03
2023-12-30T02:15:36.238Z,99384.58
2023-12-30T02:16:40.559Z,99395.72
2023-12-30T02:17:43.044Z,99385.50
2023-12-30T02:18:47.105Z,99382.88
2023-12-30T02:19:51.384Z,99386.34
2023-12-30T02:20:55.227Z,99383.81
2023-12-30T02:21:58.866Z,99378.66
2023-12-30T02:23:02.214Z,99384.64
2023-12-30T02:24:05.586Z,99382.12
2023-12-30T02:25:10.309Z,99383.81
2023-12-30T02:26:13.470Z,99380.35
2023-12-30T02:27:15.743Z,99375.20
2023-12-30T02:28:18.540Z,99380.35
2023-12-30T02:29:21.989Z,99377.77
2023-12-30T02:30:25.758Z,99377.80
2023-12-30T02:31:29.643Z,99383.81
2023-12-30T02:32:32.470Z,99378.73
2023-12-30T02:33:35.649Z,99374.55
2023-12-30T02:34:38.661Z,99375.44
2023-12-30T02:35:44.284Z,99373.75
2023-12-30T02:36:48.779Z,99371.17
2023-12-30T02:37:51.990Z,99368.64
2023-12-30T02:38:54.592Z,99373.75
2023-12-30T02:39:56.860Z,99377.97
2023-12-30T02:40:59.442Z,99378.83
2023-12-30T02:42:01.792Z,99373.63
2023-12-30T02:43:04.976Z,99381.42
2023-12-30T02:44:08.741Z,99379.78
2023-12-30T02:45:12.439Z,99384.05
2023-12-30T02:46:16.308Z,99379.77
2023-12-30T02:47:18.692Z,99385.75
2023-12-30T02:48:20.909Z,99378.90
2023-12-30T02:49:24.171Z,99379.07
2023-12-30T02:50:26.748Z,99379.00
2023-12-30T02:51:30.193Z,99375.56
2023-12-30T02:52:33.340Z,99385.82
2023-12-30T02:53:36.139Z,99372.16
2023-12-30T02:54:40.251Z,99370.36
2023-12-30T02:55:43.063Z,99371.12
2023-12-30T02:56:45.787Z,99366.83
2023-12-30T02:57:49.962Z,99369.41
2023-12-30T02:59:01.717Z,99369.47
2023-12-30T03:00:05.748Z,99365.20
2023-12-30T03:01:08.221Z,99367.83
2023-12-30T03:02:11.020Z,99367.00
2023-12-30T03:03:14.836Z,99372.05
2023-12-30T03:04:17.025Z,99369.47
2023-12-30T03:05:19.864Z,99359.98
2023-12-30T03:06:23.525Z,99366.83
2023-12-30T03:07:26.788Z,99362.48
2023-12-30T03:08:30.144Z,99360.78
2023-12-30T03:09:33.553Z,99354.82
2023-12-30T03:10:37.216Z,99368.59
2023-12-30T03:11:41.487Z,99370.28
2023-12-30T03:12:44.396Z,99370.34
2023-12-30T03:13:47.913Z,99366.89
2023-12-30T03:14:50.320Z,99379.00
2023-12-30T03:15:53.918Z,99370.45
2023-12-30T03:16:58.193Z,99366.28
2023-12-30T03:18:00.862Z,99379.17
2023-12-30T03:19:05.511Z,99378.25
2023-12-30T03:20:10.674Z,99375.68
2023-12-30T03:21:16.704Z,99380.83
2023-12-30T03:22:19.221Z,99380.00
2023-12-30T03:23:21.717Z,99383.41
2023-12-30T03:24:23.781Z,99384.33
2023-12-30T03:25:25.995Z,99372.32
2023-12-30T03:26:30.561Z,99370.63
2023-12-30T03:27:32.977Z,99374.97
2023-12-30T03:28:35.452Z,99381.77
2023-12-30T03:29:39.098Z,99374.92
2023-12-30T03:30:42.418Z,99376.66
2023-12-30T03:31:44.674Z,99381.00
2023-12-30T03:32:48.664Z,99381.00
2023-12-30T03:33:53.867Z,99373.39
2023-12-30T03:34:57.010Z,99373.32
2023-12-30T03:35:59.626Z,99373.32
2023-12-30T03:37:02.033Z,99367.34
2023-12-30T03:38:04.786Z,99375.14
2023-12-30T03:39:10.908Z,99369.17
2023-12-30T03:40:13.843Z,99370.81
2023-12-30T03:41:17.147Z,99367.41
2023-12-30T03:42:19.457Z,99369.00
2023-12-30T03:43:21.820Z,99370.80
2023-12-30T03:44:27.046Z,99367.34
2023-12-30T03:45:29.671Z,99373.27
2023-12-30T03:46:32.826Z,99369.00
2023-12-30T03:47:35.389Z,99365.54
2023-12-30T03:48:39.333Z,99367.23
2023-12-30T03:49:42.572Z,99369.69
2023-12-30T03:50:45.347Z,99370.53
2023-12-30T03:51:47.507Z,99367.06
2023-12-30T03:52:51.640Z,99372.27
2023-12-30T03:53:55.472Z,99373.91
2023-12-30T03:54:57.898Z,99372.16
2023-12-30T03:56:00.840Z,99361.91
2023-12-30T03:57:03.846Z,99370.53
2023-12-30T03:58:06.382Z,99371.39
2023-12-30T03:59:08.882Z,99366.19
2023-12-30T04:00:14.015Z,99366.19
2023-12-30T04:01:16.558Z,99377.30
2023-12-30T04:02:21.118Z,99377.30
2023-12-30T04:03:23.705Z,99372.16
2023-12-30T04:04:26.348Z,99369.52
2023-12-30T04:05:29.658Z,99363.61
2023-12-30T04:06:33.188Z,99372.16
2023-12-30T04:07:37.108Z,99376.44
2023-12-30T04:08:39.309Z,99380.66
2023-12-30T04:09:41.524Z,99377.38
2023-12-30T04:10:43.982Z,99373.08
2023-12-30T04:11:46.454Z,99371.34
2023-12-30T04:12:48.966Z,99374.02
2023-12-30T04:13:51.598Z,99381.77
2023-12-30T04:14:55.273Z,99376.59
2023-12-30T04:15:57.541Z,99374.08
2023-12-30T04:17:01.225Z,99371.51
2023-12-30T04:18:04.669Z,99368.88
2023-12-30T04:19:07.852Z,99382.63
2023-12-30T04:20:11.131Z,99376.55
2023-12-30T04:21:13.649Z,99378.25
2023-12-30T04:22:16.050Z,99377.47
2023-12-30T04:23:18.253Z,99382.63
2023-12-30T04:24:22.375Z,99377.47
2023-12-30T04:25:24.998Z,99379.17
2023-12-30T04:26:27.607Z,99380.94
2023-12-30T04:27:31.008Z,99378.41
2023-12-30T04:28:33.294Z,99375.84
2023-12-30T04:29:35.806Z,99369.81
2023-12-30T04:30:38.619Z,99371.44
2023-12-30T04:31:40.861Z,99372.32
2023-12-30T04:32:43.478Z,99381.77
2023-12-30T04:33:46.383Z,99363.95
2023-12-30T04:34:49.981Z,99363.95
2023-12-30T04:35:52.933Z,99374.16
2023-12-30T04:36:55.430Z,99369.93
2023-12-30T04:37:57.892Z,99372.61
2023-12-30T04:39:00.291Z,99369.17
2023-12-30T04:40:03.578Z,99369.17
2023-12-30T04:41:06.229Z,99373.39
2023-12-30T04:42:11.056Z,99373.44
2023-12-30T04:43:13.558Z,99368.33
2023-12-30T04:44:16.605Z,99371.80
2023-12-30T04:45:19.577Z,99374.32
2023-12-30T04:46:22.603Z,99368.33
2023-12-30T04:47:25.514Z,99376.02
2023-12-30T04:48:27.936Z,99372.56
2023-12-30T04:49:30.902Z,99372.56
2023-12-30T04:50:36.219Z,99370.86
2023-12-30T04:51:38.988Z,99371.72
2023-12-30T04:52:44.420Z,99376.06
2023-12-30T04:53:51.919Z,99382.86
2023-12-30T04:54:54.297Z,99372.49
2023-12-30T04:55:56.742Z,99377.59
2023-12-30T04:57:01.417Z,99377.64
2023-12-30T04:58:04.120Z,99377.47
2023-12-30T04:59:07.166Z,99372.93
2023-12-30T05:00:12.986Z,99373.69
2023-12-30T05:01:15.418Z,99374.73
2023-12-30T05:02:18.741Z,99374.84
2023-12-30T05:03:21.716Z,99372.32
2023-12-30T05:04:24.115Z,99382.53
2023-12-30T05:05:26.323Z,99382.36
2023-12-30T05:06:30.801Z,99382.23
2023-12-30T05:07:33.442Z,99383.22
2023-12-30T05:08:37.318Z,99375.56
2023-12-30T05:09:39.713Z,99377.38
2023-12-30T05:10:43.545Z,99375.68
2023-12-30T05:11:48.819Z,99367.00
2023-12-30T05:12:51.343Z,99375.52
2023-12-30T05:13:53.870Z,99370.36
2023-12-30T05:14:58.696Z,99370.36
2023-12-30T05:16:01.446Z,99367.00
2023-12-30T05:17:04.041Z,99367.66
2023-12-30T05:18:06.788Z,99368.77
2023-12-30T05:19:11.403Z,99368.86
2023-12-30T05:20:16.463Z,99361.15
2023-12-30T05:21:18.971Z,99369.81
2023-12-30T05:22:21.399Z,99356.28
2023-12-30T05:23:24.141Z,99350.42
2023-12-30T05:24:26.821Z,99352.19
2023-12-30T05:25:29.590Z,99350.42
2023-12-30T05:26:33.357Z,99346.27
2023-12-30T05:27:36.233Z,99347.31
2023-12-30T05:28:39.604Z,99352.67
2023-12-30T05:29:42.382Z,99351.08
2023-12-30T05:30:45.209Z,99340.01
2023-12-30T05:31:47.996Z,99349.45
2023-12-30T05:32:50.433Z,99346.09
2023-12-30T05:33:52.714Z,99351.23
2023-12-30T05:34:55.964Z,99345.31
2023-12-30T05:35:59.143Z,99349.70
2023-12-30T05:37:01.714Z,99351.61
2023-12-30T05:38:04.210Z,99349.86
2023-12-30T05:39:06.624Z,99356.04
2023-12-30T05:40:11.103Z,99348.69
2023-12-30T05:41:13.307Z,99358.83
2023-12-30T05:42:16.854Z,99363.97
2023-12-30T05:43:19.848Z,99357.28
2023-12-30T05:44:22.093Z,99365.97
2023-12-30T05:45:25.581Z,99364.33
2023-12-30T05:46:29.692Z,99363.54
2023-12-30T05:47:32.131Z,99361.76
2023-12-30T05:48:35.025Z,99364.42
2023-12-30T05:49:42.868Z,99366.95
2023-12-30T05:50:45.465Z,99370.40
2023-12-30T05:51:48.421Z,99371.27
2023-12-30T05:52:52.582Z,99378.98
2023-12-30T05:53:55.807Z,99367.78
2023-12-30T05:54:58.218Z,99391.95
2023-12-30T05:56:00.362Z,99386.95
2023-12-30T05:57:03.350Z,99386.26
2023-12-30T05:58:06.079Z,99400.77
2023-12-30T05:59:09.013Z,99394.02
2023-12-30T06:00:12.591Z,99393.10
2023-12-30T06:01:14.827Z,99396.37
2023-12-30T06:02:17.275Z,99392.88
2023-12-30T06:03:20.535Z,99387.81
2023-12-30T06:04:23.263Z,99398.24
2023-12-30T06:05:26.479Z,99397.38
2023-12-30T06:06:32.997Z,99399.86
2023-12-30T06:07:37.536Z,99404.31
2023-12-30T06:08:39.728Z,99399.27
2023-12-30T06:09:42.593Z,99397.52
2023-12-30T06:10:46.997Z,99397.60
2023-12-30T06:11:49.723Z,99406.11
2023-12-30T06:12:52.028Z,99398.30
2023-12-30T06:13:54.388Z,99404.31
2023-12-30T06:14:59.091Z,99401.73
2023-12-30T06:16:01.452Z,99407.61
2023-12-30T06:17:04.134Z,99416.16
2023-12-30T06:18:07.049Z,99407.61
2023-12-30T06:19:09.766Z,99417.95
2023-12-30T06:20:16.796Z,99418.73
2023-12-30T06:21:20.113Z,99415.34
2023-12-30T06:22:22.734Z,99419.66
2023-12-30T06:23:24.970Z,99418.04
2023-12-30T06:24:27.592Z,99415.61
2023-12-30T06:25:31.335Z,99409.64
2023-12-30T06:26:39.200Z,99401.06
2023-12-30T06:27:41.862Z,99404.49
2023-12-30T06:28:44.300Z,99406.98
2023-12-30T06:29:48.649Z,99411.30
2023-12-30T06:30:53.160Z,99412.21
2023-12-30T06:31:56.636Z,99418.17
2023-12-30T06:33:00.187Z,99413.03
2023-12-30T06:34:02.892Z,99407.75
2023-12-30T06:35:06.309Z,99418.04
2023-12-30T06:36:09.513Z,99412.91
2023-12-30T06:37:13.018Z,99416.27
2023-12-30T06:38:16.523Z,99412.67
2023-12-30T06:39:19.603Z,99426.41
2023-12-30T06:40:22.207Z,99420.48
2023-12-30T06:41:25.780Z,99426.55
2023-12-30T06:42:27.908Z,99417.16
2023-12-30T06:43:30.339Z,99419.79
2023-12-30T06:44:32.843Z,99414.52
2023-12-30T06:45:35.620Z,99424.06
2023-12-30T06:46:39.020Z,99414.61
2023-12-30T06:47:43.006Z,99426.62
2023-12-30T06:48:45.501Z,99424.20
2023-12-30T06:49:51.337Z,99427.77
2023-12-30T06:50:55.758Z,99429.61
2023-12-30T06:51:58.660Z,99428.70
2023-12-30T06:53:01.239Z,99422.59
2023-12-30T06:54:03.733Z,99419.97
2023-12-30T06:55:18.006Z,99419.79
2023-12-30T06:56:12.547Z,99424.80
2023-12-30T06:57:15.477Z,99419.56
2023-12-30T06:58:17.566Z,99416.06
2023-12-30T06:59:20.622Z,99417.82
2023-12-30T07:00:23.412Z,99418.45
2023-12-30T07:01:26.007Z,99418.45
2023-12-30T07:02:28.277Z,99412.34
2023-12-30T07:03:30.550Z,99410.73
2023-12-30T07:04:33.359Z,99407.44
2023-12-30T07:05:36.583Z,99403.16
2023-12-30T07:06:39.400Z,99407.39
2023-12-30T07:07:41.519Z,99404.81
2023-12-30T07:08:43.862Z,99415.09
2023-12-30T07:09:46.571Z,99411.61
2023-12-30T07:10:53.969Z,99414.17
2023-12-30T07:11:56.249Z,99414.03
2023-12-30T07:12:59.644Z,99410.59
2023-12-30T07:14:02.045Z,99409.72
2023-12-30T07:15:05.181Z,99419.14
2023-12-30T07:16:09.082Z,99418.36
2023-12-30T07:17:12.213Z,99406.99
2023-12-30T07:18:15.050Z,99406.99
2023-12-30T07:19:18.132Z,99403.39
2023-12-30T07:20:26.741Z,99403.45
2023-12-30T07:21:29.738Z,99405.15
2023-12-30T07:22:34.071Z,99406.76
2023-12-30T07:23:36.505Z,99408.31
2023-12-30T07:24:39.062Z,99406.59
2023-12-30T07:25:42.574Z,99397.86
2023-12-30T07:26:45.952Z,99410.83
2023-12-30T07:27:48.550Z,99408.00
2023-12-30T07:28:51.896Z,99416.84
2023-12-30T07:29:54.283Z,99412.04
2023-12-30T07:30:56.720Z,99405.15
2023-12-30T07:32:01.330Z,99413.60
2023-12-30T07:33:04.963Z,99416.07
2023-12-30T07:34:08.420Z,99420.45
2023-12-30T07:35:10.990Z,99422.14
2023-12-30T07:36:15.070Z,99410.15
2023-12-30T07:37:17.336Z,99416.02
2023-12-30T07:38:20.108Z,99416.79
2023-12-30T07:39:22.930Z,99414.17
2023-12-30T07:40:27.281Z,99415.77
2023-12-30T07:41:29.400Z,99416.38
2023-12-30T07:42:31.636Z,99421.33
2023-12-30T07:43:35.043Z,99416.39
2023-12-30T07:44:38.643Z,99423.02
2023-12-30T07:45:41.982Z,99411.64
2023-12-30T07:46:44.603Z,99416.74
2023-12-30T07:47:46.890Z,99418.28
2023-12-30T07:48:49.397Z,99417.40
2023-12-30T07:49:52.673Z,99405.40
2023-12-30T07:50:56.797Z,99426.10
2023-12-30T07:52:02.020Z,99426.89
2023-12-30T07:53:05.230Z,99424.31
2023-12-30T07:54:07.813Z,99427.92
2023-12-30T07:55:11.374Z,99422.00
2023-12-30T07:56:14.816Z,99424.47
2023-12-30T07:57:17.608Z,99420.74
2023-12-30T07:58:19.941Z,99420.74
2023-12-30T07:59:22.138Z,99424.85
2023-12-30T08:00:25.960Z,99412.90
2023-12-30T08:01:29.665Z,99415.31
2023-12-30T08:02:31.914Z,99417.01
2023-12-30T08:03:34.588Z,99423.69
2023-12-30T08:04:37.190Z,99422.64
2023-12-30T08:05:41.234Z,99422.88
2023-12-30T08:06:43.703Z,99422.05
2023-12-30T08:07:46.372Z,99422.06
2023-12-30T08:08:49.208Z,99418.44
2023-12-30T08:09:51.375Z,99426.92
2023-12-30T08:10:54.721Z,99419.73
2023-12-30T08:12:02.798Z,99429.98
2023-12-30T08:13:04.684Z,99424.88
2023-12-30T08:14:08.369Z,99431.39
2023-12-30T08:15:11.681Z,99423.58
2023-12-30T08:16:15.509Z,99425.41
2023-12-30T08:17:17.703Z,99421.25
2023-12-30T08:18:19.895Z,99428.86
2023-12-30T08:19:23.038Z,99422.13
2023-12-30T08:20:27.252Z,99419.38
2023-12-30T08:21:30.263Z,99431.98
2023-12-30T08:22:33.303Z,99423.13
2023-12-30T08:23:36.380Z,99429.02
2023-12-30T08:24:38.976Z,99420.19
2023-12-30T08:25:41.510Z,99426.47
2023-12-30T08:26:48.540Z,99421.43
2023-12-30T08:27:51.456Z,99422.95
2023-12-30T08:28:55.874Z,99416.95
2023-12-30T08:29:58.257Z,99411.75
2023-12-30T08:31:03.802Z,99408.28
2023-12-30T08:32:08.510Z,99412.38
2023-12-30T08:33:12.315Z,99401.87
2023-12-30T08:34:15.984Z,99410.55
2023-12-30T08:35:18.651Z,99399.34
2023-12-30T08:36:23.668Z,99400.72
2023-12-30T08:37:27.302Z,99403.12
2023-12-30T08:38:31.492Z,99393.56
2023-12-30T08:39:33.733Z,99400.39
2023-12-30T08:40:37.286Z,99391.14
2023-12-30T08:41:41.670Z,99391.98
2023-12-30T08:42:48.697Z,99387.76
2023-12-30T08:45:13.695Z,99384.45
2023-12-30T08:46:17.369Z,99377.11
2023-12-30T08:47:20.889Z,99370.30
2023-12-30T08:48:23.491Z,99386.34
2023-12-30T08:49:26.286Z,99386.34
2023-12-30T08:50:33.810Z,99382.88
2023-12-30T08:51:36.381Z,99380.23
2023-12-30T08:52:38.840Z,99382.77
2023-12-30T08:53:41.005Z,99380.88
2023-12-30T08:54:43.255Z,99382.37
2023-12-30T08:55:45.611Z,99377.00
2023-12-30T08:56:50.544Z,99379.33
2023-12-30T08:57:53.957Z,99376.75
2023-12-30T08:58:56.515Z,99373.36
2023-12-30T08:59:58.556Z,99376.00
2023-12-30T09:01:00.940Z,99369.80
2023-12-30T09:02:07.288Z,99365.32
2023-12-30T09:03:09.638Z,99367.81
2023-12-30T09:04:12.724Z,99358.40
2023-12-30T09:05:20.011Z,99367.99
2023-12-30T09:06:22.469Z,99366.13
2023-12-30T09:07:25.570Z,99374.10
2023-12-30T09:08:30.145Z,99376.75
2023-12-30T09:09:32.473Z,99369.06
2023-12-30T09:10:35.813Z,99370.69
2023-12-30T09:11:38.748Z,99366.33
2023-12-30T09:12:42.639Z,99364.64
2023-12-30T09:13:45.114Z,99364.38
2023-12-30T09:14:47.663Z,99363.27
2023-12-30T09:15:51.379Z,99355.46
2023-12-30T09:16:54.881Z,99356.94
2023-12-30T09:17:59.526Z,99346.97
2023-12-30T09:19:04.399Z,99359.37
2023-12-30T09:20:08.777Z,99353.46
2023-12-30T09:21:12.101Z,99355.98
2023-12-30T09:22:14.532Z,99354.13
2023-12-30T09:23:18.142Z,99352.41
2023-12-30T09:24:20.431Z,99348.80
2023-12-30T09:25:23.535Z,99350.38
2023-12-30T09:26:28.749Z,99353.66
2023-12-30T09:27:31.089Z,99360.71
2023-12-30T09:28:35.209Z,99354.07
2023-12-30T09:29:37.958Z,99350.20
2023-12-30T09:30:41.799Z,99350.05
2023-12-30T09:31:44.105Z,99342.84
2023-12-30T09:32:47.022Z,99338.69
2023-12-30T09:33:50.284Z,99348.97
2023-12-30T09:34:54.272Z,99350.38
2023-12-30T09:35:56.738Z,99341.05
2023-12-30T09:36:59.561Z,99336.68
2023-12-30T09:38:02.380Z,99338.47
2023-12-30T09:39:06.485Z,99344.44
2023-12-30T09:40:10.525Z,99341.50
2023-12-30T09:41:14.369Z,99345.01
2023-12-30T09:42:16.972Z,99340.03
2023-12-30T09:43:23.840Z,99339.84
2023-12-30T09:44:27.011Z,99329.27
2023-12-30T09:45:32.740Z,99330.33
2023-12-30T09:46:37.544Z,99340.73
2023-12-30T09:47:46.705Z,99329.59
2023-12-30T09:48:52.231Z,99333.87
2023-12-30T09:49:57.277Z,99335.59
2023-12-30T09:51:02.538Z,99329.59
2023-12-30T09:52:08.788Z,99331.37
2023-12-30T09:53:11.780Z,99329.36
2023-12-30T09:54:14.688Z,99327.45
2023-12-30T09:55:18.344Z,99323.63
2023-12-30T09:56:24.955Z,99321.31
2023-12-30T09:57:27.993Z,99326.71
2023-12-30T09:58:34.317Z,99313.98
2023-12-30T09:59:38.996Z,99316.34
2023-12-30T10:00:48.247Z,99319.59
2023-12-30T10:01:52.070Z,99323.50
2023-12-30T10:02:54.595Z,99312.98
2023-12-30T10:03:57.056Z,99317.09
2023-12-30T10:05:02.566Z,99317.16
2023-12-30T10:07:21.761Z,99315.59
2023-12-30T10:08:25.043Z,99326.41
2023-12-30T10:09:29.498Z,99324.52
2023-12-30T10:10:46.251Z,99322.52
2023-12-30T10:11:50.522Z,99318.62
2023-12-30T10:12:52.804Z,99321.86
2023-12-30T10:13:55.173Z,99317.66
2023-12-30T10:14:57.474Z,99320.17
2023-12-30T10:16:01.955Z,99322.69
2023-12-30T10:17:05.529Z,99315.65
2023-12-30T10:18:09.485Z,99310.91
2023-12-30T10:19:17.391Z,99305.59
2023-12-30T10:20:23.731Z,99305.34
2023-12-30T10:21:26.880Z,99308.72
2023-12-30T10:22:30.709Z,99301.20
2023-12-30T10:23:35.478Z,99295.38
2023-12-30T10:24:38.775Z,99290.20
2023-12-30T10:25:44.365Z,99292.25
2023-12-30T10:26:51.696Z,99293.50
2023-12-30T10:27:55.369Z,99287.36
2023-12-30T10:28:59.116Z,99288.91
2023-12-30T10:30:01.970Z,99289.58
2023-12-30T10:31:07.889Z,99284.00
2023-12-30T10:32:11.155Z,99290.61
2023-12-30T10:33:15.534Z,99278.82
2023-12-30T10:34:22.992Z,99284.63
2023-12-30T10:35:25.461Z,99286.56
2023-12-30T10:36:30.498Z,99287.72
2023-12-30T10:37:33.429Z,99285.37
2023-12-30T10:38:41.260Z,99284.48
2023-12-30T10:39:46.436Z,99283.69
2023-12-30T10:40:53.625Z,99285.52
2023-12-30T10:41:57.530Z,99283.69
2023-12-30T10:43:01.776Z,99285.27
2023-12-30T10:44:04.455Z,99282.00
2023-12-30T10:45:08.509Z,99286.09
2023-12-30T10:46:13.607Z,99279.95
2023-12-30T10:47:16.458Z,99278.16
2023-12-30T10:48:20.966Z,99275.31
2023-12-30T10:49:26.349Z,99269.69
2023-12-30T10:50:30.158Z,99277.09
2023-12-30T10:51:36.091Z,99276.23
2023-12-30T10:54:08.566Z,99266.36
2023-12-30T10:55:14.086Z,99277.91
2023-12-30T10:56:20.672Z,99269.45
2023-12-30T10:57:27.948Z,99277.02
2023-12-30T10:58:40.949Z,99275.48
2023-12-30T10:59:44.282Z,99271.42
2023-12-30T11:01:03.464Z,99274.91
2023-12-30T11:02:07.639Z,99273.52
2023-12-30T11:03:11.215Z,99272.03
2023-12-30T11:04:16.452Z,99262.30
2023-12-30T11:05:34.786Z,99265.31
2023-12-30T11:06:44.615Z,99269.80
2023-12-30T11:07:47.552Z,99261.95
2023-12-30T11:08:53.180Z,99259.28
2023-12-30T11:10:00.005Z,99254.52
2023-12-30T11:11:03.959Z,99257.17
2023-12-30T11:12:09.950Z,99265.16
2023-12-30T11:13:12.413Z,99257.73
2023-12-30T11:14:16.723Z,99270.22
2023-12-30T11:15:25.779Z,99260.16
2023-12-30T11:16:32.344Z,99249.75
2023-12-30T11:17:36.295Z,99253.83
2023-12-30T11:18:48.702Z,99250.45
2023-12-30T11:19:52.324Z,99252.42
2023-12-30T11:20:56.342Z,99257.11
2023-12-30T11:22:00.880Z,99254.80
2023-12-30T11:23:04.934Z,99249.73
2023-12-30T11:24:12.174Z,99245.13
2023-12-30T11:25:14.940Z,99243.73
2023-12-30T11:26:18.999Z,99238.67
2023-12-30T11:27:23.185Z,99228.99
2023-12-30T11:28:26.640Z,99227.02
2023-12-30T11:29:30.125Z,99229.23
2023-12-30T11:30:34.607Z,99221.98
2023-12-30T11:31:40.163Z,99229.90
2023-12-30T11:32:43.177Z,99233.69
2023-12-30T11:33:45.986Z,99240.48
2023-12-30T11:34:50.426Z,99242.45
2023-12-30T11:35:56.495Z,99237.55
2023-12-30T11:37:00.196Z,99235.87
2023-12-30T11:38:07.861Z,99236.49
2023-12-30T11:39:15.112Z,99230.68
2023-12-30T11:40:22.506Z,99227.19
2023-12-30T11:41:28.811Z,99227.05
2023-12-30T11:42:38.005Z,99230.60
2023-12-30T11:43:36.902Z,99227.34
2023-12-30T11:44:40.328Z,99232.53
2023-12-30T11:45:44.417Z,99223.81
2023-12-30T11:46:50.252Z,99223.52
2023-12-30T11:47:55.720Z,99222.78
2023-12-30T11:49:00.476Z,99219.48
2023-12-30T11:50:13.262Z,99217.80
2023-12-30T11:51:24.056Z,99218.22
2023-12-30T11:52:26.987Z,99227.05
2023-12-30T11:53:35.623Z,99219.41
2023-12-30T11:54:40.099Z,99223.27
2023-12-30T11:55:42.636Z,99230.69
2023-12-30T11:56:46.306Z,99221.30
2023-12-30T11:57:49.182Z,99216.81
2023-12-30T11:58:52.819Z,99225.78
2023-12-30T11:59:57.273Z,99214.84
2023-12-30T12:01:09.884Z,99213.03
2023-12-30T12:02:14.320Z,99227.96
2023-12-30T12:03:17.043Z,99218.98
2023-12-30T12:04:19.390Z,99226.15
2023-12-30T12:05:21.849Z,99203.88
2023-12-30T12:06:27.132Z,99218.53
2023-12-30T12:07:29.527Z,99215.94
2023-12-30T12:08:31.812Z,99210.88
2023-12-30T12:09:33.976Z,99201.44
2023-12-30T12:10:36.803Z,99203.95
2023-12-30T12:11:39.899Z,99199.68
2023-12-30T12:12:45.213Z,99204.03
2023-12-30T12:13:48.239Z,99199.60
2023-12-30T12:14:54.103Z,99193.27
2023-12-30T12:15:58.251Z,99192.16
2023-12-30T12:17:08.542Z,99186.52
2023-12-30T12:18:12.092Z,99189.89
2023-12-30T12:19:19.262Z,99183.59
2023-12-30T12:20:25.097Z,99186.80
2023-12-30T12:21:28.603Z,99179.64
2023-12-30T12:22:32.494Z,99188.48
2023-12-30T12:23:37.730Z,99191.08
2023-12-30T12:24:41.691Z,99191.66
2023-12-30T12:25:46.087Z,99191.70
2023-12-30T12:26:49.886Z,99187.22
2023-12-30T12:27:52.606Z,99185.33
2023-12-30T12:28:56.072Z,99193.27
2023-12-30T12:29:59.688Z,99177.22
2023-12-30T12:31:03.127Z,99175.48
2023-12-30T12:32:08.064Z,99178.70
2023-12-30T12:33:14.164Z,99182.52